createdAt,value
2022-09-20T00:02:12.021Z,73.61
2022-09-20T00:04:42.104Z,73.46
2022-09-20T00:07:11.955Z,73.36
2022-09-20T00:09:41.791Z,73.16
2022-09-20T00:12:12.172Z,73.20
2022-09-20T00:14:41.960Z,72.89
2022-09-20T00:17:11.789Z,72.77
2022-09-20T00:19:41.623Z,72.99
2022-09-20T00:22:11.614Z,73.35
2022-09-20T00:24:44.579Z,73.25
2022-09-20T00:27:13.188Z,73.37
2022-09-20T00:29:43.017Z,72.99
2022-09-20T00:32:12.891Z,73.50
2022-09-20T00:35:00.190Z,73.12
2022-09-20T00:37:30.095Z,72.87
2022-09-20T00:39:59.932Z,73.16
2022-09-20T00:42:31.880Z,73.24
2022-09-20T00:45:07.482Z,73.59
2022-09-20T00:47:40.575Z,73.84
2022-09-20T00:50:18.625Z,73.57
2022-09-20T00:52:51.397Z,73.76
2022-09-20T00:55:22.710Z,73.65
2022-09-20T00:57:52.457Z,73.42
2022-09-20T01:00:22.517Z,73.72
2022-09-20T01:02:55.676Z,74.77
2022-09-20T01:05:26.306Z,74.24
2022-09-20T01:07:57.149Z,74.02
2022-09-20T01:10:26.885Z,74.14
2022-09-20T01:12:56.637Z,74.98
2022-09-20T01:15:29.007Z,75.18
2022-09-20T01:18:01.821Z,75.76
2022-09-20T01:20:37.642Z,75.95
2022-09-20T01:23:10.159Z,75.50
2022-09-20T01:26:15.587Z,76.72
2022-09-20T01:28:50.935Z,75.72
2022-09-20T01:31:24.071Z,75.72
2022-09-20T01:34:18.049Z,76.11
2022-09-20T01:36:53.336Z,75.80
2022-09-20T01:39:42.373Z,77.04
2022-09-20T01:42:14.229Z,77.70
2022-09-20T01:45:03.417Z,77.16
2022-09-20T01:48:07.515Z,77.92
2022-09-20T01:50:40.361Z,77.37
2022-09-20T01:53:46.004Z,77.05
2022-09-20T01:56:30.609Z,76.62
2022-09-20T01:59:30.940Z,76.26
2022-09-20T02:02:00.984Z,76.26
2022-09-20T02:04:42.549Z,76.55
2022-09-20T02:07:37.890Z,76.30
2022-09-20T02:10:28.829Z,76.57
2022-09-20T02:13:01.620Z,76.11
2022-09-20T02:15:59.204Z,75.99
2022-09-20T02:18:50.141Z,76.16
2022-09-20T02:21:23.040Z,76.10
2022-09-20T02:24:10.325Z,75.88
2022-09-20T02:26:46.375Z,76.17
2022-09-20T02:29:31.101Z,77.28
2022-09-20T02:32:15.654Z,77.55
2022-09-20T02:35:15.648Z,77.42
2022-09-20T02:38:07.967Z,78.12
2022-09-20T02:40:52.728Z,77.49
2022-09-20T02:43:40.257Z,77.84
2022-09-20T02:46:23.630Z,77.61
2022-09-20T02:49:08.597Z,78.25
2022-09-20T02:51:56.456Z,78.25
2022-09-20T02:54:53.217Z,78.05
2022-09-20T02:57:34.501Z,77.47
2022-09-20T03:00:09.749Z,77.42
2022-09-20T03:03:00.412Z,78.31
2022-09-20T03:06:03.144Z,78.22
2022-09-20T03:08:41.651Z,77.88
2022-09-20T03:11:26.280Z,77.56
2022-09-20T03:14:15.789Z,77.55
2022-09-20T03:17:02.157Z,78.05
2022-09-20T03:19:49.644Z,77.55
2022-09-20T03:22:51.948Z,77.56
2022-09-20T03:25:54.351Z,78.93
2022-09-20T03:28:44.596Z,78.93
2022-09-20T03:31:45.937Z,78.91
2022-09-20T03:34:38.028Z,79.52
2022-09-20T03:37:16.585Z,79.52
2022-09-20T03:40:00.557Z,79.21
2022-09-20T03:42:31.308Z,78.97
2022-09-20T03:45:20.330Z,77.87
2022-09-20T03:48:07.842Z,77.56
2022-09-20T03:50:49.567Z,77.82
2022-09-20T03:53:45.153Z,77.84
2022-09-20T03:56:35.479Z,78.16
2022-09-20T03:59:27.388Z,77.87
2022-09-20T04:02:17.435Z,77.78
2022-09-20T04:04:55.804Z,77.92
2022-09-20T04:07:49.405Z,77.68
2022-09-20T04:10:30.738Z,78.08
2022-09-20T04:13:17.940Z,78.20
2022-09-20T04:16:11.190Z,78.49
2022-09-20T04:18:58.287Z,77.74
2022-09-20T04:21:53.375Z,77.98
2022-09-20T04:24:43.233Z,78.63
2022-09-20T04:27:30.712Z,78.07
2022-09-20T04:30:05.693Z,78.07
2022-09-20T04:33:11.352Z,77.57
2022-09-20T04:36:21.225Z,77.19
2022-09-20T04:38:54.473Z,77.68
2022-09-20T04:41:36.258Z,77.88
2022-09-20T04:44:16.261Z,78.45
2022-09-20T04:47:09.866Z,78.35
2022-09-20T04:50:09.280Z,78.24
2022-09-20T04:52:44.800Z,78.12
2022-09-20T04:55:29.684Z,77.68
2022-09-20T04:58:29.207Z,77.68
2022-09-20T05:01:11.075Z,78.32
2022-09-20T05:03:43.848Z,78.12
2022-09-20T05:06:38.229Z,78.05
2022-09-20T05:09:32.321Z,78.31
2022-09-20T05:12:37.040Z,78.45
2022-09-20T05:15:13.902Z,78.57
2022-09-20T05:17:49.346Z,78.55
2022-09-20T05:20:53.922Z,78.48
2022-09-20T05:24:00.871Z,78.45
2022-09-20T05:26:45.154Z,77.95
2022-09-20T05:29:29.535Z,78.99
2022-09-20T05:32:11.278Z,78.99
2022-09-20T05:34:46.762Z,78.54
2022-09-20T05:37:43.644Z,78.64
2022-09-20T05:40:39.314Z,77.96
2022-09-20T05:43:24.479Z,78.75
2022-09-20T05:46:31.384Z,79.86
2022-09-20T05:49:06.760Z,79.86
2022-09-20T05:51:45.672Z,79.00
2022-09-20T05:54:26.950Z,79.00
2022-09-20T05:57:15.851Z,78.62
2022-09-20T06:00:07.573Z,78.62
2022-09-20T06:03:04.310Z,78.58
2022-09-20T06:05:42.790Z,78.57
2022-09-20T06:08:29.934Z,78.05
2022-09-20T06:11:02.739Z,78.18
2022-09-20T06:13:50.045Z,77.67
2022-09-20T06:16:28.464Z,79.25
2022-09-20T06:19:17.708Z,79.54
2022-09-20T06:22:03.495Z,79.77
2022-09-20T06:24:54.100Z,79.08
2022-09-20T06:27:27.053Z,79.43
2022-09-20T06:29:59.833Z,78.48
2022-09-20T06:32:29.575Z,78.57
2022-09-20T06:35:02.425Z,78.12
2022-09-20T06:37:52.677Z,78.22
2022-09-20T06:40:57.875Z,77.96
2022-09-20T06:43:29.250Z,77.47
2022-09-20T06:45:59.617Z,77.46
2022-09-20T06:48:30.741Z,77.97
2022-09-20T06:51:01.748Z,77.54
2022-09-20T06:53:34.035Z,76.95
2022-09-20T06:56:04.235Z,76.71
2022-09-20T06:58:33.943Z,76.87
2022-09-20T07:01:03.806Z,75.69
2022-09-20T07:03:33.665Z,76.22
2022-09-20T07:06:04.371Z,75.76
2022-09-20T07:08:34.113Z,75.60
2022-09-20T07:11:12.428Z,75.08
2022-09-20T07:13:42.586Z,74.70
2022-09-20T07:16:17.571Z,74.51
2022-09-20T07:18:48.391Z,74.92
2022-09-20T07:21:19.974Z,74.10
2022-09-20T07:23:51.153Z,73.21
2022-09-20T07:26:26.871Z,73.21
2022-09-20T07:28:57.426Z,73.38
2022-09-20T07:31:29.296Z,73.14
2022-09-20T07:33:59.021Z,72.50
2022-09-20T07:36:29.215Z,72.01
2022-09-20T07:38:59.092Z,71.40
2022-09-20T07:41:30.425Z,71.69
2022-09-20T07:44:01.879Z,70.74
2022-09-20T07:46:33.255Z,71.61
2022-09-20T07:49:03.907Z,71.28
2022-09-20T07:51:33.640Z,70.75
2022-09-20T07:54:03.392Z,70.05
2022-09-20T07:56:33.114Z,69.67
2022-09-20T07:59:02.881Z,69.40
2022-09-20T08:01:32.930Z,70.11
2022-09-20T08:04:03.118Z,70.02
2022-09-20T08:06:33.388Z,69.36
2022-09-20T08:09:03.197Z,68.13
2022-09-20T08:11:34.308Z,68.58
2022-09-20T08:14:06.196Z,68.81
2022-09-20T08:16:41.044Z,68.81
2022-09-20T08:19:12.642Z,68.72
2022-09-20T08:21:42.129Z,67.89
2022-09-20T08:24:13.529Z,65.74
2022-09-20T08:26:43.528Z,65.74
2022-09-20T08:29:15.207Z,65.72
2022-09-20T08:31:46.313Z,65.73
2022-09-20T08:34:18.308Z,64.21
2022-09-20T08:36:50.231Z,62.41
2022-09-20T08:42:11.002Z,61.72
2022-09-20T08:44:47.093Z,62.28
2022-09-20T08:47:25.451Z,63.49
2022-09-20T08:49:57.365Z,62.41
2022-09-20T08:52:35.868Z,61.49
2022-09-20T08:55:07.679Z,60.14
2022-09-20T08:57:34.962Z,60.49
2022-09-20T09:00:07.486Z,59.95
2022-09-20T09:02:37.910Z,59.36
2022-09-20T09:05:12.433Z,59.81
2022-09-20T09:07:42.474Z,59.91
2022-09-20T09:10:14.260Z,61.20
2022-09-20T09:12:48.807Z,61.31
2022-09-20T09:15:24.514Z,61.74
2022-09-20T09:17:56.092Z,61.54
2022-09-20T09:20:26.344Z,62.66
2022-09-20T09:23:08.937Z,62.45
2022-09-20T09:25:40.494Z,63.96
2022-09-20T09:28:15.308Z,63.29
2022-09-20T09:30:49.109Z,63.29
2022-09-20T09:33:24.990Z,63.84
2022-09-20T09:35:57.188Z,64.28
2022-09-20T09:38:29.966Z,64.48
2022-09-20T09:41:02.471Z,65.57
2022-09-20T09:43:35.506Z,64.87
2022-09-20T09:46:27.404Z,64.92
2022-09-20T09:49:19.385Z,66.34
2022-09-20T09:52:19.788Z,66.05
2022-09-20T09:54:56.566Z,68.08
2022-09-20T09:57:44.440Z,68.13
2022-09-20T10:00:21.935Z,68.13
2022-09-20T10:03:21.309Z,67.14
2022-09-20T10:06:03.969Z,64.71
2022-09-20T10:08:48.945Z,64.71
2022-09-20T10:11:55.858Z,64.55
2022-09-20T10:14:43.200Z,63.17
2022-09-20T10:17:49.142Z,63.90
2022-09-20T10:20:31.130Z,63.11
2022-09-20T10:23:39.384Z,62.25
2022-09-20T10:25:58.222Z,62.63
2022-09-20T10:28:41.484Z,60.12
2022-09-20T10:31:17.009Z,58.29
2022-09-20T10:33:52.923Z,57.28
2022-09-20T10:36:31.094Z,57.65
2022-09-20T10:39:21.657Z,57.41
2022-09-20T10:42:20.769Z,56.87
2022-09-20T10:45:53.308Z,56.87
2022-09-20T10:48:17.089Z,55.06
2022-09-20T10:51:04.612Z,53.99
2022-09-20T10:53:46.575Z,54.41
2022-09-20T10:56:30.852Z,54.02
2022-09-20T10:59:16.403Z,52.52
2022-09-20T11:02:08.222Z,52.93
2022-09-20T11:05:03.186Z,53.23
2022-09-20T11:07:44.592Z,53.81
2022-09-20T11:10:22.588Z,53.39
2022-09-20T11:12:53.702Z,52.20
2022-09-20T11:15:26.430Z,52.78
2022-09-20T11:18:10.462Z,53.36
2022-09-20T11:20:46.087Z,54.05
2022-09-20T11:23:18.865Z,53.65
2022-09-20T11:26:00.546Z,52.40
2022-09-20T11:28:39.245Z,53.94
2022-09-20T11:31:28.413Z,53.94
2022-09-20T11:34:01.381Z,51.63
2022-09-20T11:36:38.679Z,52.70
2022-09-20T11:39:29.326Z,53.91
2022-09-20T11:42:02.200Z,53.10
2022-09-20T11:44:33.742Z,53.41
2022-09-20T11:47:06.506Z,53.18
2022-09-20T11:50:01.639Z,52.94
2022-09-20T11:52:37.091Z,51.95
2022-09-20T11:55:28.541Z,52.20
2022-09-20T11:58:03.896Z,50.90
2022-09-20T12:00:36.781Z,48.75
2022-09-20T12:03:13.043Z,49.23
2022-09-20T12:05:43.811Z,46.75
2022-09-20T12:08:39.180Z,47.46
2022-09-20T12:11:14.710Z,46.32
2022-09-20T12:13:56.067Z,45.44
2022-09-20T12:16:37.613Z,45.43
2022-09-20T12:19:15.052Z,45.37
2022-09-20T12:22:05.452Z,43.71
2022-09-20T12:24:36.854Z,45.60
2022-09-20T12:27:31.951Z,44.98
2022-09-20T12:30:19.815Z,44.41
2022-09-20T12:32:56.249Z,44.99
2022-09-20T12:35:42.259Z,44.12
2022-09-20T12:38:25.320Z,44.87
2022-09-20T12:41:10.034Z,43.61
2022-09-20T12:43:57.781Z,43.72
2022-09-20T12:46:42.412Z,43.14
2022-09-20T12:49:59.828Z,42.94
2022-09-20T12:52:52.676Z,43.25
2022-09-20T12:55:34.317Z,42.53
2022-09-20T12:58:15.884Z,42.06
2022-09-20T13:00:54.507Z,42.80
2022-09-20T13:03:36.319Z,40.38
2022-09-20T13:06:12.335Z,40.38
2022-09-20T13:09:04.732Z,39.95
2022-09-20T13:11:46.681Z,41.71
2022-09-20T13:14:25.367Z,41.43
2022-09-20T13:17:14.606Z,41.38
2022-09-20T13:19:47.181Z,42.50
2022-09-20T13:22:28.524Z,42.21
2022-09-20T13:25:01.168Z,42.49
2022-09-20T13:27:39.641Z,42.11
2022-09-20T13:30:21.196Z,42.09
2022-09-20T13:32:52.359Z,41.76
2022-09-20T13:35:31.549Z,42.46
2022-09-20T13:38:07.596Z,42.51
2022-09-20T13:40:47.712Z,42.58
2022-09-20T13:43:32.516Z,43.24
2022-09-20T13:46:17.118Z,42.44
2022-09-20T13:48:55.468Z,41.29
2022-09-20T13:51:27.567Z,40.72
2022-09-20T13:54:00.332Z,40.73
2022-09-20T13:56:32.512Z,40.80
2022-09-20T13:59:05.319Z,40.26
2022-09-20T14:01:39.813Z,41.53
2022-09-20T14:04:16.309Z,41.03
2022-09-20T14:06:46.795Z,41.28
2022-09-20T14:09:28.701Z,40.85
2022-09-20T14:11:59.883Z,40.99
2022-09-20T14:14:30.929Z,40.54
2022-09-20T14:17:02.621Z,41.88
2022-09-20T14:19:37.183Z,41.61
2022-09-20T14:22:11.341Z,42.05
2022-09-20T14:24:41.633Z,42.20
2022-09-20T14:27:22.387Z,41.61
2022-09-20T14:29:54.545Z,41.94
2022-09-20T14:32:36.195Z,41.43
2022-09-20T14:35:10.377Z,41.58
2022-09-20T14:37:49.465Z,42.24
2022-09-20T14:40:28.541Z,41.44
2022-09-20T14:43:06.763Z,41.98
2022-09-20T14:45:40.161Z,41.98
2022-09-20T14:48:14.457Z,42.69
2022-09-20T14:50:47.162Z,43.75
2022-09-20T14:53:22.833Z,43.72
2022-09-20T14:56:07.183Z,43.46
2022-09-20T14:58:56.697Z,44.21
2022-09-20T15:01:27.140Z,44.93
2022-09-20T15:03:58.428Z,44.12
2022-09-20T15:06:28.236Z,43.93
2022-09-20T15:08:59.512Z,44.80
2022-09-20T15:11:29.903Z,44.35
2022-09-20T15:13:59.627Z,44.57
2022-09-20T15:16:30.311Z,44.06
2022-09-20T15:19:00.101Z,44.31
2022-09-20T15:21:30.408Z,44.13
2022-09-20T15:24:00.216Z,45.01
2022-09-20T15:26:31.416Z,44.30
2022-09-20T15:29:02.377Z,43.60
2022-09-20T15:31:32.470Z,44.78
2022-09-20T15:34:02.263Z,44.30
2022-09-20T15:36:32.146Z,44.29
2022-09-20T15:39:02.015Z,43.80
2022-09-20T15:41:32.242Z,45.30
2022-09-20T15:44:02.491Z,44.42
2022-09-20T15:46:32.502Z,44.39
2022-09-20T15:49:04.650Z,44.52
2022-09-20T15:51:35.261Z,44.71
2022-09-20T15:54:09.420Z,43.93
2022-09-20T15:56:41.447Z,43.93
2022-09-20T15:59:14.367Z,43.84
2022-09-20T16:01:48.169Z,43.94
2022-09-20T16:04:19.874Z,43.96
2022-09-20T16:06:51.037Z,43.90
2022-09-20T16:09:22.314Z,44.88
2022-09-20T16:11:53.746Z,44.61
2022-09-20T16:14:23.488Z,45.03
2022-09-20T16:16:52.969Z,44.68
2022-09-20T16:19:23.776Z,44.65
2022-09-20T16:21:58.887Z,45.25
2022-09-20T16:24:30.157Z,45.18
2022-09-20T16:27:01.207Z,45.79
2022-09-20T16:29:31.643Z,46.28
2022-09-20T16:32:03.470Z,46.13
2022-09-20T16:34:35.535Z,46.77
2022-09-20T16:37:08.733Z,46.71
2022-09-20T16:39:40.369Z,46.47
2022-09-20T16:42:13.123Z,46.77
2022-09-20T16:44:44.220Z,47.80
2022-09-20T16:47:20.704Z,48.86
2022-09-20T16:49:51.865Z,48.23
2022-09-20T16:52:22.279Z,48.56
2022-09-20T16:54:52.018Z,48.71
2022-09-20T16:57:22.303Z,49.27
2022-09-20T16:59:53.806Z,50.02
2022-09-20T17:02:23.537Z,50.11
2022-09-20T17:04:53.628Z,50.27
2022-09-20T17:07:24.260Z,51.39
2022-09-20T17:09:55.663Z,51.39
2022-09-20T17:12:27.632Z,51.74
2022-09-20T17:14:57.359Z,52.16
2022-09-20T17:17:27.094Z,52.24
2022-09-20T17:19:56.847Z,53.06
2022-09-20T17:22:26.398Z,53.06
2022-09-20T17:24:56.101Z,53.33
2022-09-20T17:27:26.034Z,53.63
2022-09-20T17:29:56.310Z,54.79
2022-09-20T17:32:26.241Z,54.41
2022-09-20T17:34:56.007Z,55.14
2022-09-20T17:37:25.894Z,54.78
2022-09-20T17:39:57.373Z,55.82
2022-09-20T17:42:28.278Z,55.81
2022-09-20T17:44:58.300Z,56.20
2022-09-20T17:47:28.372Z,56.06
2022-09-20T17:49:58.115Z,55.80
2022-09-20T17:52:27.838Z,56.94
2022-09-20T17:54:57.561Z,57.62
2022-09-20T17:57:27.319Z,57.94
2022-09-20T17:59:57.535Z,57.29
2022-09-20T18:02:27.564Z,57.58
2022-09-20T18:04:57.275Z,58.54
2022-09-20T18:07:27.009Z,59.13
2022-09-20T18:09:57.310Z,59.12
2022-09-20T18:12:27.053Z,59.92
2022-09-20T18:14:57.205Z,58.82
2022-09-20T18:17:26.947Z,59.06
2022-09-20T18:19:56.693Z,59.23
2022-09-20T18:22:26.224Z,58.73
2022-09-20T18:24:56.374Z,59.05
2022-09-20T18:27:26.102Z,59.25
2022-09-20T18:29:55.836Z,60.28
2022-09-20T18:32:28.718Z,60.23
2022-09-20T18:34:58.745Z,60.78
2022-09-20T18:37:28.988Z,60.33
2022-09-20T18:39:59.088Z,60.77
2022-09-20T18:42:30.462Z,61.54
2022-09-20T18:45:00.477Z,61.69
2022-09-20T18:47:31.672Z,61.37
2022-09-20T18:50:01.696Z,61.58
2022-09-20T18:52:31.898Z,61.79
2022-09-20T18:55:03.614Z,61.79
2022-09-20T18:57:33.776Z,62.12
2022-09-20T19:00:04.474Z,62.11
2022-09-20T19:02:52.694Z,61.45
2022-09-20T19:05:28.189Z,61.76
2022-09-20T19:08:01.249Z,62.19
2022-09-20T19:10:45.797Z,63.04
2022-09-20T19:13:18.860Z,63.06
2022-09-20T19:15:57.400Z,63.27
2022-09-20T19:18:50.813Z,62.82
2022-09-20T19:21:50.711Z,62.82
2022-09-20T19:24:32.469Z,63.54
2022-09-20T19:27:02.355Z,64.07
2022-09-20T19:29:33.105Z,63.70
2022-09-20T19:32:03.197Z,63.32
2022-09-20T19:34:33.792Z,63.15
2022-09-20T19:37:29.749Z,63.29
2022-09-20T19:40:17.600Z,64.05
2022-09-20T19:42:56.400Z,64.85
2022-09-20T19:45:40.629Z,64.40
2022-09-20T19:48:42.375Z,64.71
2022-09-20T19:51:13.943Z,64.98
2022-09-20T19:53:43.927Z,65.28
2022-09-20T19:56:21.222Z,64.85
2022-09-20T19:58:52.852Z,64.84
2022-09-20T20:01:24.099Z,64.89
2022-09-20T20:03:55.317Z,64.70
2022-09-20T20:06:30.945Z,64.92
2022-09-20T20:09:09.275Z,65.09
2022-09-20T20:11:53.809Z,64.78
2022-09-20T20:14:35.164Z,64.78
2022-09-20T20:17:33.395Z,65.02
2022-09-20T20:20:27.538Z,64.91
2022-09-20T20:23:19.153Z,65.76
2022-09-20T20:26:12.643Z,65.74
2022-09-20T20:28:42.395Z,65.63
2022-09-20T20:31:12.590Z,66.12
2022-09-20T20:33:43.296Z,65.80
2022-09-20T20:36:14.329Z,65.39
2022-09-20T20:38:45.885Z,65.84
2022-09-20T20:41:18.485Z,66.06
2022-09-20T20:43:49.324Z,65.35
2022-09-20T20:46:19.791Z,65.77
2022-09-20T20:48:49.708Z,66.07
2022-09-20T20:51:21.826Z,66.11
2022-09-20T20:53:53.763Z,66.09
2022-09-20T20:56:26.172Z,65.92
2022-09-20T20:58:58.496Z,66.61
2022-09-20T21:01:34.225Z,66.36
2022-09-20T21:04:07.389Z,66.92
2022-09-20T21:06:40.470Z,66.77
2022-09-20T21:09:11.820Z,66.01
2022-09-20T21:11:47.454Z,66.37
2022-09-20T21:14:17.982Z,66.38
2022-09-20T21:16:47.739Z,66.54
2022-09-20T21:19:18.747Z,66.76
2022-09-20T21:21:48.753Z,66.44
2022-09-20T21:24:18.558Z,66.26
2022-09-20T21:26:48.407Z,66.45
2022-09-20T21:29:19.478Z,66.60
2022-09-20T21:31:49.326Z,66.74
2022-09-20T21:34:18.766Z,66.50
2022-09-20T21:36:48.500Z,67.01
2022-09-20T21:39:17.964Z,67.25
2022-09-20T21:41:48.676Z,66.51
2022-09-20T21:44:20.080Z,66.11
2022-09-20T21:46:50.422Z,65.97
2022-09-20T21:49:20.204Z,65.57
2022-09-20T21:51:51.590Z,66.67
2022-09-20T21:54:21.028Z,66.76
2022-09-20T21:56:52.438Z,66.46
2022-09-20T21:59:22.821Z,66.46
2022-09-20T22:01:52.878Z,67.01
2022-09-20T22:04:23.023Z,67.28
2022-09-20T22:06:52.767Z,67.05
2022-09-20T22:09:24.115Z,66.65
2022-09-20T22:11:53.932Z,67.05
2022-09-20T22:14:24.024Z,68.08
2022-09-20T22:16:54.096Z,68.08
2022-09-20T22:19:24.386Z,67.69
2022-09-20T22:21:54.211Z,67.45
2022-09-20T22:24:23.999Z,67.06
2022-09-20T22:26:54.126Z,67.18
2022-09-20T22:29:23.682Z,66.97
2022-09-20T22:31:53.857Z,67.70
2022-09-20T22:34:24.833Z,67.21
2022-09-20T22:36:55.025Z,68.19
2022-09-20T22:39:24.980Z,67.63
2022-09-20T22:41:54.785Z,68.24
2022-09-20T22:44:24.693Z,68.99
2022-09-20T22:46:54.551Z,68.10
2022-09-20T22:49:24.392Z,68.02
2022-09-20T22:51:54.205Z,68.29
2022-09-20T22:54:23.750Z,68.54
2022-09-20T22:56:53.581Z,68.11
2022-09-20T22:59:23.387Z,68.50
2022-09-20T23:01:53.012Z,68.49
2022-09-20T23:04:23.590Z,68.29
2022-09-20T23:06:57.388Z,68.29
2022-09-20T23:09:28.333Z,67.77
2022-09-20T23:11:58.490Z,68.86
2022-09-20T23:14:28.383Z,68.23
2022-09-20T23:16:58.318Z,68.21
2022-09-20T23:19:28.306Z,67.87
2022-09-20T23:21:58.103Z,68.02
2022-09-20T23:24:27.825Z,67.97
2022-09-20T23:26:57.701Z,67.90
2022-09-20T23:29:27.883Z,68.41
2022-09-20T23:31:57.840Z,68.04
2022-09-20T23:34:27.652Z,68.13
2022-09-20T23:36:57.458Z,68.62
2022-09-20T23:39:27.850Z,68.70
2022-09-20T23:41:57.729Z,68.40
2022-09-20T23:44:27.529Z,68.62
2022-09-20T23:46:57.336Z,68.91
2022-09-20T23:49:27.566Z,69.33
2022-09-20T23:51:57.482Z,69.57
2022-09-20T23:54:27.496Z,69.38
2022-09-20T23:56:57.291Z,69.20
2022-09-20T23:59:27.095Z,69.23
